createdAt,value
2018-12-29T15:20:04.565Z,4.13
2018-12-29T15:25:11.808Z,4.77
2018-12-29T15:30:25.628Z,4.90
2018-12-29T15:35:32.079Z,4.40
2018-12-29T15:40:38.834Z,4.93
2018-12-29T15:45:45.261Z,4.20
2018-12-29T15:50:52.223Z,4.50
2018-12-29T15:55:58.892Z,3.20
2018-12-29T16:01:06.027Z,4.00
2018-12-29T16:06:12.539Z,3.20
2018-12-29T16:11:25.965Z,2.83
2018-12-29T16:16:27.879Z,3.00
2018-12-29T16:21:36.473Z,2.40
2018-12-29T16:26:43.091Z,2.33
2018-12-29T16:31:50.327Z,1.60
2018-12-29T16:36:58.818Z,2.60
2018-12-29T16:42:06.287Z,1.90
2018-12-29T16:47:12.604Z,1.43
2018-12-29T16:52:19.115Z,1.00
2018-12-29T16:57:27.322Z,1.13
2018-12-29T17:02:35.072Z,2.00
2018-12-29T17:07:42.908Z,1.30
2018-12-29T17:12:50.658Z,1.30
2018-12-29T17:17:58.182Z,1.40
2018-12-29T17:23:05.006Z,2.60
2018-12-29T17:28:12.532Z,1.60
2018-12-29T17:33:19.658Z,1.70
2018-12-29T17:38:28.892Z,2.50
2018-12-29T17:43:36.057Z,3.13
2018-12-29T17:48:43.234Z,3.00
2018-12-29T17:53:51.812Z,3.90
2018-12-29T17:58:58.065Z,2.53
2018-12-29T18:04:04.841Z,4.87
2018-12-29T18:09:11.858Z,3.37
2018-12-29T18:14:18.558Z,4.23
2018-12-29T18:19:30.536Z,3.67
2018-12-29T18:24:33.967Z,2.90
2018-12-29T18:29:40.634Z,3.10
2018-12-29T18:34:47.102Z,2.50
2018-12-29T18:39:55.952Z,3.70
2018-12-29T18:45:02.562Z,4.53
2018-12-29T18:50:09.000Z,1.40
2018-12-29T18:55:15.313Z,0.30
2018-12-29T19:00:21.997Z,0.67
2018-12-29T19:05:28.440Z,0.67
2018-12-29T19:10:36.286Z,0.80
2018-12-29T19:15:43.170Z,0.60
2018-12-29T19:20:51.583Z,1.20
2018-12-29T19:25:57.977Z,0.60
2018-12-29T19:31:06.755Z,0.50
2018-12-29T19:36:13.409Z,0.90
2018-12-29T19:41:20.236Z,0.50
2018-12-29T19:46:27.046Z,1.00
2018-12-29T19:51:33.699Z,0.60
2018-12-29T19:56:41.503Z,1.17
2018-12-29T20:01:50.276Z,4.43
2018-12-29T20:06:59.244Z,0.67
2018-12-29T20:12:08.944Z,0.50
2018-12-29T20:17:15.795Z,1.20
2018-12-29T20:22:22.831Z,1.53
2018-12-29T20:27:31.496Z,1.20
2018-12-29T20:32:40.129Z,2.40
2018-12-29T20:37:49.448Z,1.47
2018-12-29T20:42:55.564Z,1.10
2018-12-29T20:48:01.826Z,1.90
2018-12-29T20:53:08.155Z,1.80
2018-12-29T20:58:15.427Z,1.67
2018-12-29T21:03:22.217Z,1.30
2018-12-29T21:08:29.855Z,0.80
2018-12-29T21:13:37.803Z,1.10
2018-12-29T21:18:45.147Z,1.10
2018-12-29T21:23:55.301Z,0.60
2018-12-29T21:29:01.950Z,0.60
2018-12-29T21:34:08.324Z,0.73
2018-12-29T21:39:14.618Z,1.33
2018-12-29T21:44:20.954Z,1.50
2018-12-29T21:49:27.261Z,1.07
2018-12-29T21:54:33.478Z,1.70
2018-12-29T21:59:39.996Z,2.20
2018-12-29T22:04:46.319Z,2.10
2018-12-29T22:09:55.126Z,2.30
2018-12-29T22:15:03.617Z,2.10
2018-12-29T22:20:11.334Z,2.27
2018-12-29T22:25:18.658Z,2.20
2018-12-29T22:30:25.077Z,2.77
2018-12-29T22:35:31.444Z,2.10
2018-12-29T22:40:38.067Z,2.27
2018-12-29T22:45:44.564Z,2.30
2018-12-29T22:50:51.019Z,1.20
2018-12-29T22:55:58.608Z,1.50
2018-12-29T23:01:05.190Z,0.93
2018-12-29T23:06:12.209Z,0.60
2018-12-29T23:11:18.686Z,0.90
2018-12-29T23:16:25.008Z,1.20
2018-12-29T23:21:32.233Z,1.50
2018-12-29T23:26:39.708Z,1.50
2018-12-29T23:31:47.007Z,1.60
2018-12-29T23:36:53.504Z,1.20
2018-12-29T23:41:59.887Z,1.27
2018-12-29T23:47:06.431Z,1.00
2018-12-29T23:52:12.663Z,0.60
2018-12-29T23:57:18.760Z,0.60
